Vue régionale

METAR et TAF

Mercredi 19 février 2020 à 17h25

Visibilités horizontales observées à différents aéroports. Les observations (METAR) et prévisions aéronautiques (TAF) complètes sont disponibles en cliquant sur l’icône correspondante.

  • Luxemburg (ELLX)

    Taf: TAF ELLX 191100Z 1912/2018 27012KT 9999 FEW015 SCT020 BECMG 1918/1922 22010KT -RADZ SCT005 BKN010 TEMPO 1923/2009 4000 -RADZ BR BKN005 BECMG 2010/2013 BKN015 BECMG 2016/2018 22015G25KT=

    Metar: METAR ELLX 191550Z 27014KT 9999 FEW033 06/M02 Q1023 NOSIG=

  • Spangdahlem (ETAD)

    Taf: TAF ETAD 191300Z 1913/2019 27012G20KT 9999 SCT030 SCT050 QNH3015INS BECMG 1914/1915 24010G15KT 9999 SCT045 BKN150 QNH3016INS BECMG 1919/1920 24010KT 9999 BKN015 OVC025 620208 QNH3016INS BECMG 1921/1922 24009KT 8000 -SHRA OVC010 610209 QNH3005INS BECMG 2005/2006 22010G15KT 9999 NSW OVC007 620209 QNH3006INS BECMG 2009/2010 21015G25KT 9999 BKN015 QNH3005INS BECMG 2015/2016 21015G25KT 8000 -SHRA BKN012 QNH2995INS TX07/1914Z TN02/1920Z=

    Metar: nil

  • Metz/Nancy (LFJL)

    Taf: TAF LFJL 191100Z 1912/2012 28015KT 9999 BKN030 BECMG 1916/1919 21009KT BECMG 1919/1922 -RADZ OVC011 PROB40 TEMPO 1922/2006 4000 -RADZ BKN006 BECMG 2006/2009 NSW BKN020=

    Metar: nil

  • Saarbrücken/Intl (EDDR)

    Taf: TAF AMD EDDR 191455Z 1914/2012 27012KT 9999 SCT025 PROB30 TEMPO 1915/1917 27015G25KT BECMG 1917/1920 23007KT TEMPO 2000/2010 4000 RADZ BKN008 BECMG 2003/2006 21012KT=

    Metar: nil

  • Hahn (EDFH)

    Taf: TAF EDFH 191100Z 1912/2012 27015G25KT 9999 SCT020 BECMG 1915/1918 23010KT TEMPO 2000/2011 2000 RADZ BKN004=

    Metar: nil

  • Ramstein (ETAR)

    Taf: TAF ETAR 191000Z 1910/2016 29010G20KT 9999 SCT035 510009 QNH3013INS BECMG 1915/1916 27009KT 9999 SCT035 QNH3020INS BECMG 1922/1923 23009KT 9999 BKN020 650208 QNH3019INS BECMG 2001/2002 22012KT 9000 -RA OVC012 620208 QNH3010INS BECMG 2011/2012 22010G20KT 9999 NSW BKN018 510009 QNH3004INS TX07/1914Z TN02/1921Z=

    Metar: nil

  • Nancy/Ochey (LFSO)

    Taf: TAF LFSO 191400Z 1915/2015 24010KT 9999 BKN030 BECMG 1922/2001 BKN013 TEMPO 2001/2006 4000 -DZRA BKN008 BECMG 2009/2012 BKN025=

    Metar: nil

  • Liège Bierset (EBLG)

    Taf: TAF EBLG 191102Z 1912/2018 25012KT 9999 SCT020 TEMPO 1919/2002 4500 RA BKN013 PROB40 TEMPO 1921/2002 3400 RADZ BKN009 PROB40 TEMPO 2002/2009 4500 -DZ BKN009 BECMG 2010/2012 22015G25KT TEMPO 2017/2018 22020G35KT 4000 RA SHRA=

    Metar: nil

  • Saint-Dizier (LFSI)

    Taf: TAF LFSI 191400Z 1915/2015 26010G20KT 9999 BKN030 BECMG 1915/1917 RA BKN015 TEMPO 2000/2002 20010G20KT BKN007 BKN015 BECMG 2013/2015 23015G30KT=

    Metar: nil

  • Maastricht/Zuid Limburg (EHBK)

    Taf: TAF EHBK 191058Z 1912/2018 27013KT 9999 SCT025 BECMG 1915/1917 24008KT BECMG 1917/1920 21010KT TEMPO 1923/2007 7000 RADZ BKN014 BECMG 2008/2011 22015G25KT=

    Metar: nil

  • Köln/Köln-Bonn (EDDK)

    Taf: TAF EDDK 191100Z 1912/2018 27015G25KT 9999 BKN025 BECMG 1912/1915 27012KT BECMG 1916/1919 18007KT TEMPO 1921/2006 RA BECMG 2008/2011 20012KT PROB30 TEMPO 2013/2018 21015G25KT=

    Metar: METAR EDDK 191550Z 26017KT 9999 SCT035 07/M01 Q1022 TEMPO 28015G25KT=

  • Charleroi (EBCI)

    Taf: TAF EBCI 191102Z 1912/2018 25012KT 9999 SCT020 TEMPO 1917/2001 4500 RA BKN012 PROB40 TEMPO 1920/2001 3200 RADZ BKN008 PROB40 TEMPO 2001/2009 4500 -DZ BKN008 BECMG 2010/2012 22015G25KT TEMPO 2016/2018 22020G35KT 4000 RA SHRA=

    Metar: nil

  • Wiesbaden (ETOU)

    Taf: TAF ETOU 191200Z 1912/2018 29012G18KT 9999 SCT030 QNH3012INS TEMPO 1912/1916 29015G25KT 510103 BECMG 1917/1918 21009KT 9999 SCT020 BKN035 610353 QNH3018INS BECMG 1923/1924 22009KT 9000 -SHRA OVC015 610354 QNH3010INS BECMG 2005/2006 20006KT 5000 -DZ BR OVC008 620353 QNH3005INS BECMG 2011/2012 24009KT 9999 NSW BKN015 QNH3003INS BECMG 2013/2014 23012KT 9999 BKN060 QNH3000INS TX11/2012Z TN03/1921Z=

    Metar: nil

  • Karlsruhe/Baden-Baden (EDSB)

    Taf: TAF EDSB 191100Z 1912/2012 25012KT 9999 SCT030 PROB40 TEMPO 1912/1915 25015G25KT BECMG 1915/1918 22007KT BECMG 2000/2003 20012KT=

    Metar: nil

  • Chalons/Vatry (LFOK)

    Taf: TAF LFOK 191100Z 1912/2012 26015KT 9999 BKN025 BECMG 1915/1917 20010KT TEMPO 1917/1922 4000 RA BKN009 BKN025 FM192200 20012KT 9999 SCT007 BKN020 TEMPO 1922/2010 BKN007 BECMG 2010/2012 20017G27KT=

    Metar: nil

  • Frankfurt/Main (EDDF)

    Taf: TAF AMD EDDF 191454Z 1914/2018 27012KT 9999 SCT030 PROB30 TEMPO 1915/1917 27015G25KT BECMG 1918/1921 20007KT BECMG 1923/2002 BKN030 PROB30 TEMPO 2001/2004 RA TEMPO 2004/2011 4000 -RADZ BKN012 PROB40 TEMPO 2012/2018 21015G25KT=

    Metar: METAR EDDF 191550Z 25011KT 9999 FEW048 08/M02 Q1022 NOSIG=

  • Brüssel (EBBR)

    Taf: TAF EBBR 191102Z 1912/2018 25012KT 9999 SCT025 TEMPO 1918/2001 4500 RA BKN012 PROB30 TEMPO 1921/2001 3400 RADZ PROB30 TEMPO 2001/2008 BKN009 BECMG 2010/2012 22015G25KT TEMPO 2016/2018 22020G35KT 4000 RA SHRA=

    Metar: METAR EBBR 191550Z 24011KT 9999 FEW035 07/M01 Q1022 NOSIG=

  • Düsseldorf (EDDL)

    Taf: TAF EDDL 191100Z 1912/2018 26015G25KT 9999 BKN025 BECMG 1916/1919 18010KT TEMPO 1921/2006 RA BECMG 2007/2010 20015G25KT TEMPO 2012/2018 20020G30KT=

    Metar: nil

  • Luxeuil (LFSX)

    Taf: TAF LFSX 191400Z 1915/2015 28010G20KT 9999 BKN030 BECMG 1921/1923 BKN014 TEMPO 1922/2009 4000 -DZRA BKN005=

    Metar: nil

  • Eindhoven (EHEH)

    Taf: TAF EHEH 191129Z 1912/2018 28012G22KT 9999 BKN040 BECMG 1916/1918 21007KT BECMG 1921/1924 22012KT SCT016 BKN025 PROB40 TEMPO 2000/2004 4500 RADZ SCT008 BKN015 PROB40 TEMPO 2004/2010 SCT010 BKN015=

    Metar: nil

  • Niederrhein (EDLV)

    Taf: TAF EDLV 191100Z 1912/2012 27015G25KT 9999 BKN030 BECMG 1915/1918 21008KT TEMPO 1921/2008 RA BKN010 PROB30 TEMPO 2000/2006 4500 -DZ BKN008=

    Metar: nil

  • Dortmund/Wickede (EDLW)

    Taf: TAF EDLW 191100Z 1912/2012 26012KT 9999 BKN035 TEMPO 1912/1915 27015G25KT BECMG 1917/1920 20012KT TEMPO 2000/2006 RA BKN012 BECMG 2009/2012 21015G25KT=

    Metar: nil

  • Stuttgart/Echterdingen (EDDS)

    Taf: TAF EDDS 191100Z 1912/2012 25015G30KT 9999 SCT020 PROB30 TEMPO 1912/1914 4000 SHRAGS BKN020CB BECMG 1915/1918 22006KT=

    Metar: METAR EDDS 191550Z 26010KT 9999 FEW010 FEW036TCU 05/M00 Q1023 NOSIG=

  • Basel-Mühlhausen (LFSB)

    Taf: TAF LFSB 191102Z 1912/2012 27013KT 9999 SCT030 SCT045 TEMPO 1912/1915 28015G27KT BECMG 1917/1919 19005KT TEMPO 2010/2012 27010KT=

    Metar: METAR LFSB 191600Z 28008KT 9999 FEW035 BKN250 07/M01 Q1026 NOSIG=

  • Lille (LFQQ)

    Taf: TAF LFQQ 191100Z 1912/2018 27012KT 9999 SCT025 BECMG 1916/1918 20010KT TEMPO 1918/1922 4000 RA BKN007 OVC017 FM192200 20012KT 9999 SCT010 BKN017 PROB40 1922/2007 BKN008 BECMG 2007/2009 21015G25KT BECMG 2010/2012 20020G35KT BECMG 2014/2016 4000 RA OVC013 BECMG 2016/2017 30025G45KT=

    Metar: nil

  • Paris/Charles de Gaulle (LFPG)

    Taf: TAF AMD LFPG 191241Z 1912/2018 25012KT 9999 BKN035 TX12/2015Z TN08/1918Z PROB30 TEMPO 1920/2004 BKN013 PROB30 TEMPO 2005/2009 4000 -DZ BKN008 BECMG 2007/2009 22015G25KT BECMG 2012/2015 22020G35KT PROB40 TEMPO 2017/2018 28025G45KT 3000 RA BKN013=

    Metar: nil

  • Paderborn/Lippstadt (EDLP)

    Taf: TAF EDLP 191100Z 1912/2012 26011KT 9999 BKN020 TEMPO 1912/1915 26015G25KT BECMG 1918/1921 10011KT PROB30 TEMPO 2001/2007 RA BECMG 2008/2011 21015G25KT=

    Metar: nil

  • Paris/Le Bourget (LFPB)

    Taf: TAF LFPB 191100Z 1912/2012 25012KT 9999 BKN025 PROB30 TEMPO 1920/2004 BKN013 PROB30 TEMPO 2005/2009 4000 -DZ BKN008 BECMG 2007/2009 22015G25KT=

    Metar: METAR LFPB 191600Z AUTO 25009KT 9999 -RA BKN025 BKN031 BKN039 09/05 Q1025 NOSIG=

  • Rotterdam (EHRD)

    Taf: TAF EHRD 191110Z 1912/2018 26017KT 9999 SCT025 BECMG 1915/1918 23012KT BECMG 1918/1921 20014KT 7000 -RADZ OVC012 TEMPO 1923/2003 3000 DZRA BKN007 OVC010 BECMG 2006/2009 20017G27KT 9999 NSW BKN018 BECMG 2016/2018 29020G30KT 4000 RA TEMPO 2017/2018 28028G42KT 2500 +RA +SHRA BKN012 FEW018CB=

    Metar: nil

  • Zürich/Kloten (LSZH)

    Taf: TAF LSZH 191425Z 1915/2021 28010KT 9999 FEW035 TX06/1915Z TN00/2006Z TX10/2015Z PROB30 1915/1917 28015G25KT BECMG 1915/1918 24006KT PROB40 2014/2021 CAVOK=

    Metar: METAR LSZH 191550Z 29012KT 250V320 9999 FEW050 06/M03 Q1025 NOSIG=

  • Oostende/Intl (EBOS)

    Taf: TAF EBOS 191102Z 1912/2018 24015G25KT 9999 SCT025 TEMPO 1916/2001 19013KT 4500 RA BKN012 PROB40 TEMPO 1918/2001 3400 RADZ PROB40 TEMPO 2001/2005 BKN012 TEMPO 2013/2017 23025G38KT 4000 RA SHRA BECMG 2016/2018 29020G30KT=

    Metar: nil

  • Paris/Orly (LFPO)

    Taf: TAF LFPO 191100Z 1912/2018 27010KT 9999 BKN030 TEMPO 1914/1918 -RA BKN030TCU BECMG 1918/1920 21010G20KT PROB30 TEMPO 2006/2011 BKN013 BECMG 2010/2012 21015G25KT TEMPO 2012/2016 24020G30KT BECMG 2016/2018 BKN014 TEMPO 2016/2018 28025G45KT 3000 -RA BKN008=

    Metar: nil

  • Beauvais (LFOB)

    Taf: TAF LFOB 191100Z 1912/2012 26012KT 9999 BKN025 TEMPO 1912/1915 4000 SHRA BKN020TCU TEMPO 1915/1918 20008KT 4000 RA BKN010 OVC020 FM191800 20010KT 9999 SCT007 BKN017 TEMPO 1918/2010 BKN007 BECMG 2010/2012 21016G26KT=

    Metar: nil

  • Münster/Intl (EDDG)

    Taf: TAF EDDG 191100Z 1912/2012 26015G25KT 9999 BKN025 BECMG 1916/1919 20009KT TEMPO 2000/2010 4000 RADZ BKN010 PROB30 TEMPO 2003/2007 BKN007 BECMG 2009/2012 21015G25KT=

    Metar: METAR EDDG 191550Z 25016KT 9999 SCT035 07/M00 Q1019 NOSIG=

  • Illesheim (ETIK)

    Taf: TAF ETIK 191457Z 1915/2021 27012G18KT 9999 SCT030 BKN055 QNH3012INS BECMG 1922/1923 24012G18KT 9999 BKN030 QNH3016INS BECMG 2002/2003 23010G15KT 6000 -SHRA BKN010 OVC020 650401 620504 QNH3010INS BECMG 2011/2012 24012G18KT 9000 DZ BKN015 OVC035 520307 QNH3003INS TX09/2014Z TNM02/2001Z=

    Metar: nil

  • Duebendorf (LSMD)

    Taf: TAF LSMD 190925Z 1910/2016 24011KT 7000 -SHRA FEW015 BKN040 TEMPO 1910/1915 SHRA PROB30 TEMPO 1910/1914 29015G30KT 4000 SHSNRA BKN014 BKN020TCU BECMG 1916/1919 VRB03KT PROB30 2002/2007 1400 BCFG=

    Metar: nil

  • Villacoublay (LFPV)

    Taf: TAF LFPV 191400Z 1915/2015 22010KT 9999 BKN030 OVC045 TEMPO 1915/1918 4000 -RA TEMPO 1922/2001 BKN014 BECMG 2001/2003 OVC008 BECMG 2008/2010 21015G25KT SCT020=

    Metar: nil

  • Payerne (LSMP)

    Taf: TAF LSMP 190925Z 1910/2016 23013G23KT 9999 -RA BKN025 OVC035 BECMG 1920/1923 23003KT BECMG 2008/2010 CAVOK=

    Metar: nil

  • Amsterdam/Schipol (EHAM)

    Taf: TAF EHAM 191059Z 1912/2018 26017KT 9999 SCT025 BECMG 1915/1918 23012KT BECMG 1919/1922 20014KT 7000 -RADZ OVC012 TEMPO 2000/2004 3000 DZRA BKN007 OVC010 BECMG 2007/2010 20017G27KT 9999 NSW BKN018 BECMG 2010/2013 SCT025 BECMG 2016/2018 29020G30KT 4000 RA BKN018 TEMPO 2017/2018 28028G42KT 2500 +RA +SHRA BKN012 FEW018CB=

    Metar: METAR EHAM 191555Z 25015KT 220V280 9999 FEW024 07/02 Q1019 NOSIG=

  • Emmen (LSME)

    Taf: TAF LSME 190925Z 1910/2016 24011KT 8000 -SHRA FEW015 BKN050 TEMPO 1910/1915 SHRA PROB30 TEMPO 1910/1914 30015G30KT 4000 SHSNRA BKN014 BKN020TCU BECMG 1916/1919 VRB03KT PROB30 2002/2007 1400 BCFG=

    Metar: nil

  • Friedrichshafen (EDNY)

    Taf: TAF EDNY 191100Z 1912/2012 25015G25KT 9999 FEW015 BKN035 PROB30 TEMPO 1912/1915 33020G30KT 4000 SHRAGS BKN015TCU BECMG 1914/1916 25010KT FM191900 24005KT 9999 FEW050 BECMG 2001/2003 VRB02KT BECMG 2010/2012 23005KT=

    Metar: nil

  • Alpnach (LSMA)

    Taf: TAF LSMA 190925Z 1910/2016 21009KT 8000 -RA FEW015 BKN025 TEMPO 1910/1915 RA PROB30 TEMPO 1910/1914 4000 SNRA BKN014=

    Metar: nil

  • Meiringen (LSMM)

    Taf: TAF AMD LSMM 191130Z 1911/2016 VRB02KT 7000 -RA FEW009 BKN016 TEMPO 1911/1919 4000 SNRA BKN009 TEMPO 1912/1915 27015G28KT=

    Metar: nil

  • Nürnberg (EDDN)

    Taf: TAF EDDN 191100Z 1912/2012 28015G25KT 9999 FEW015 BKN030 PROB30 TEMPO 1912/1915 30020G35KT 2500 SHRAGS BKN014CB FM191700 26010KT 9999 FEW030 BECMG 1919/1921 25005KT BECMG 2000/2002 16005KT PROB30 TEMPO 2008/2011 BKN013=

    Metar: METAR EDDN 191550Z 27015KT 9999 FEW039 SCT041 06/M01 Q1021 NOSIG=

  • Rouen (LFOP)

    Taf: TAF LFOP 191100Z 1912/2012 27012KT 9999 BKN025 TEMPO 1912/1914 4000 SHRA BKN020TCU BECMG 1914/1917 21008KT SCT007 OVC012 PROB40 TEMPO 1914/1918 3000 RA BKN004 OVC012 TEMPO 1918/2010 BKN007 BECMG 2010/2012 21020G30KT=

    Metar: nil

  • Evreux (LFOE)

    Taf: TAF LFOE 191400Z 1915/2015 24012KT 4000 -DZRA SCT020 BKN035 BECMG 1916/1918 9999 NSW BKN035 PROB40 TEMPO 2003/2008 BKN010 BECMG 2007/2009 22015G25KT TEMPO 2010/2015 24020G30KT=

    Metar: nil

  • Erfurt/Bindersleben (EDDE)

    Taf: TAF EDDE 191100Z 1912/2012 27015G25KT 9999 SCT025 PROB30 TEMPO 1912/1916 29020G30KT 4000 SHRAGS BKN014CB BECMG 1918/1921 22010KT=

    Metar: nil